Queen Elizabeth — ZCEF2 — position and weather

sailwx.info

Track history (hours):
 
Tides and Currents Weather Stations Pressure Air Temp Water Temp Dewpoint Dewpoint Depression Visibility Wind Speed Wind Dir Waves Ship Positions

Queen Elizabeth

Last reported at 2017-Mar-30 22:33 UTC. Time now 2017-Mar-30 22:47 UTC.
Position N 01°16' E 103°52'.

Length 294 m; draft 8 m.

Type: Ship. MMSI: 310625000.

Date/timePositionNaut miles runAvg speedWind from/ knotsBaromVisibWave heightAir tempDewpointWater temp
2017-Mar-30 22:33N 01°16' E 103°52'4 4.2
2017-Mar-30 21:30N 01°14' E 103°56'1312.8
2017-Mar-30 20:29N 01°17' E 104°08'25320.2
2017-Mar-30 08:00N 04°54' E 106°18'   090 / 81011.310.8 27.024.129.0
2017-Mar-27 08:00N 17°00' E 111°12'14918.6 060 / 261015.9 5.4 26.021.527.0
2017-Mar-27 00:00N 19°12' E 112°24'21018.4 050 / 271020.1 5.4 22.521.026.0
2017-Mar-26 12:33N 22°17' E 114°10'0 0.3
2017-Mar-26 11:32N 22°18' E 114°10'0 0.0
2017-Mar-26 10:32N 22°18' E 114°10'0 0.0
2017-Mar-26 09:32N 22°18' E 114°10'0 0.0
2017-Mar-26 08:32N 22°18' E 114°10'0 0.0
2017-Mar-26 07:32N 22°18' E 114°10'0 0.0
2017-Mar-26 06:32N 22°18' E 114°10'0 0.0
2017-Mar-26 05:32N 22°18' E 114°10'0 0.0
2017-Mar-26 04:32N 22°18' E 114°10'0 0.0
2017-Mar-26 03:32N 22°18' E 114°10'0 0.0
2017-Mar-26 02:32N 22°18' E 114°10'0 0.0
2017-Mar-26 01:32N 22°18' E 114°10'0 0.0
2017-Mar-26 00:32N 22°18' E 114°10'0 0.0
2017-Mar-25 23:29N 22°18' E 114°10'0 0.0
2017-Mar-25 22:29N 22°18' E 114°10'1 1.1
2017-Mar-25 21:33N 22°18' E 114°11'24913.7
2017-Mar-25 03:26N 23°53' E 118°21'5114.9
2017-Mar-25 00:00N 24°24' E 119°06'28617.9 040 / 211018.7 5.4 17.015.322.0
2017-Mar-24 08:00N 28°12' E 122°18'17413.6 350 / 111017.0 5.4 13.011.115.0
2017-Mar-23 19:13N 31°06' E 122°33'811.7
2017-Mar-23 18:33N 31°06' E 122°24'1313.3
2017-Mar-23 17:34N 31°11' E 122°10'1514.6
2017-Mar-23 16:33N 31°16' E 121°54'1413.5
2017-Mar-23 15:33N 31°21' E 121°39'8 8.3
2017-Mar-23 14:33N 31°25' E 121°30'0 0.0
2017-Mar-23 13:25N 31°25' E 121°30'0 0.0
2017-Mar-23 12:22N 31°25' E 121°30'0 0.0
2017-Mar-23 11:31N 31°25' E 121°30'0 0.0
2017-Mar-23 10:31N 31°25' E 121°30'0 0.0
2017-Mar-23 09:28N 31°25' E 121°30'0 0.0
2017-Mar-23 08:31N 31°25' E 121°30'0 0.0
2017-Mar-23 07:31N 31°25' E 121°30'0 0.0
2017-Mar-23 06:31N 31°25' E 121°30'0 0.0
2017-Mar-23 05:28N 31°25' E 121°30'0 0.0
2017-Mar-23 04:28N 31°25' E 121°30'0 0.0
2017-Mar-23 03:31N 31°25' E 121°30'0 0.0
2017-Mar-23 02:31N 31°25' E 121°30'0 0.0
2017-Mar-23 01:31N 31°25' E 121°30'0 0.0
2017-Mar-23 00:31N 31°25' E 121°30'0 0.0
2017-Mar-22 23:33N 31°25' E 121°30'5 4.7
2017-Mar-22 22:33N 31°23' E 121°35'10 9.8
2017-Mar-22 21:33N 31°18' E 121°46'1110.7
2017-Mar-22 20:33N 31°15' E 121°58'1111.3
2017-Mar-22 19:33N 31°11' E 122°10'1110.9
2017-Mar-22 18:33N 31°06' E 122°21'49013.8
2017-Mar-21 07:00N 31°30' E 131°54'12015.1 300 / 321008.710.8 15.0 9.222.0
2017-Mar-20 23:00N 32°42' E 133°48'   070 / 201005.910.8 15.013.221.0
Track history (hours):
 
Tides and Currents Weather Stations Pressure Air Temp Water Temp Dewpoint Dewpoint Depression Visibility Wind Speed Wind Dir Waves Ship Positions

Queen Elizabeth

Last reported at 2017-Mar-30 22:33 UTC. Time now 2017-Mar-30 22:47 UTC.
Position N 01°16' E 103°52'.

Length 294 m; draft 8 m.

Type: Ship. MMSI: 310625000.

Date/timePositionNaut miles runAvg speedWind from/ knotsBaromVisibWave heightAir tempDewpointWater temp
2017-Mar-30 22:33N 01°16' E 103°52'4 4.2
2017-Mar-30 21:30N 01°14' E 103°56'1312.8
2017-Mar-30 20:29N 01°17' E 104°08'25320.2
2017-Mar-30 08:00N 04°54' E 106°18'   090 / 81011.310.8 27.024.129.0
2017-Mar-27 08:00N 17°00' E 111°12'14918.6 060 / 261015.9 5.4 26.021.527.0
2017-Mar-27 00:00N 19°12' E 112°24'21018.4 050 / 271020.1 5.4 22.521.026.0
2017-Mar-26 12:33N 22°17' E 114°10'0 0.3
2017-Mar-26 11:32N 22°18' E 114°10'0 0.0
2017-Mar-26 10:32N 22°18' E 114°10'0 0.0
2017-Mar-26 09:32N 22°18' E 114°10'0 0.0
2017-Mar-26 08:32N 22°18' E 114°10'0 0.0
2017-Mar-26 07:32N 22°18' E 114°10'0 0.0
2017-Mar-26 06:32N 22°18' E 114°10'0 0.0
2017-Mar-26 05:32N 22°18' E 114°10'0 0.0
2017-Mar-26 04:32N 22°18' E 114°10'0 0.0
2017-Mar-26 03:32N 22°18' E 114°10'0 0.0
2017-Mar-26 02:32N 22°18' E 114°10'0 0.0
2017-Mar-26 01:32N 22°18' E 114°10'0 0.0
2017-Mar-26 00:32N 22°18' E 114°10'0 0.0
2017-Mar-25 23:29N 22°18' E 114°10'0 0.0
2017-Mar-25 22:29N 22°18' E 114°10'1 1.1
2017-Mar-25 21:33N 22°18' E 114°11'24913.7
2017-Mar-25 03:26N 23°53' E 118°21'5114.9
2017-Mar-25 00:00N 24°24' E 119°06'28617.9 040 / 211018.7 5.4 17.015.322.0
2017-Mar-24 08:00N 28°12' E 122°18'17413.6 350 / 111017.0 5.4 13.011.115.0
2017-Mar-23 19:13N 31°06' E 122°33'811.7
2017-Mar-23 18:33N 31°06' E 122°24'1313.3
2017-Mar-23 17:34N 31°11' E 122°10'1514.6
2017-Mar-23 16:33N 31°16' E 121°54'1413.5
2017-Mar-23 15:33N 31°21' E 121°39'8 8.3
2017-Mar-23 14:33N 31°25' E 121°30'0 0.0
2017-Mar-23 13:25N 31°25' E 121°30'0 0.0
2017-Mar-23 12:22N 31°25' E 121°30'0 0.0
2017-Mar-23 11:31N 31°25' E 121°30'0 0.0
2017-Mar-23 10:31N 31°25' E 121°30'0 0.0
2017-Mar-23 09:28N 31°25' E 121°30'0 0.0
2017-Mar-23 08:31N 31°25' E 121°30'0 0.0
2017-Mar-23 07:31N 31°25' E 121°30'0 0.0
2017-Mar-23 06:31N 31°25' E 121°30'0 0.0
2017-Mar-23 05:28N 31°25' E 121°30'0 0.0
2017-Mar-23 04:28N 31°25' E 121°30'0 0.0
2017-Mar-23 03:31N 31°25' E 121°30'0 0.0
2017-Mar-23 02:31N 31°25' E 121°30'0 0.0
2017-Mar-23 01:31N 31°25' E 121°30'0 0.0
2017-Mar-23 00:31N 31°25' E 121°30'0 0.0
2017-Mar-22 23:33N 31°25' E 121°30'5 4.7
2017-Mar-22 22:33N 31°23' E 121°35'10 9.8
2017-Mar-22 21:33N 31°18' E 121°46'1110.7
2017-Mar-22 20:33N 31°15' E 121°58'1111.3
2017-Mar-22 19:33N 31°11' E 122°10'1110.9
2017-Mar-22 18:33N 31°06' E 122°21'49013.8
2017-Mar-21 07:00N 31°30' E 131°54'12015.1 300 / 321008.710.8 15.0 9.222.0
2017-Mar-20 23:00N 32°42' E 133°48'   070 / 201005.910.8 15.013.221.0

Dump ship's entire track history